sensor_id;sensor_type;location;lat;lon;timestamp;P1;durP1;ratioP1;P2;durP2;ratioP2
4096;SDS011;2062;50.694;7.246;2022-09-16T00:00:20;4.47;;;1.20;;
4096;SDS011;2062;50.694;7.246;2022-09-16T00:02:50;4.60;;;1.30;;
4096;SDS011;2062;50.694;7.246;2022-09-16T00:05:17;4.28;;;1.20;;
4096;SDS011;2062;50.694;7.246;2022-09-16T00:07:44;4.17;;;1.20;;
4096;SDS011;2062;50.694;7.246;2022-09-16T00:10:11;4.45;;;1.45;;
4096;SDS011;2062;50.694;7.246;2022-09-16T00:12:38;3.58;;;1.02;;
4096;SDS011;2062;50.694;7.246;2022-09-16T00:15:05;4.43;;;1.27;;
4096;SDS011;2062;50.694;7.246;2022-09-16T00:17:34;4.78;;;1.25;;
4096;SDS011;2062;50.694;7.246;2022-09-16T00:20:02;4.43;;;1.10;;
4096;SDS011;2062;50.694;7.246;2022-09-16T00:22:29;4.45;;;1.30;;
4096;SDS011;2062;50.694;7.246;2022-09-16T00:24:56;4.35;;;1.05;;
4096;SDS011;2062;50.694;7.246;2022-09-16T00:27:23;5.50;;;1.20;;
4096;SDS011;2062;50.694;7.246;2022-09-16T00:29:50;4.15;;;1.40;;
4096;SDS011;2062;50.694;7.246;2022-09-16T00:32:16;4.10;;;1.30;;
4096;SDS011;2062;50.694;7.246;2022-09-16T00:34:45;4.50;;;1.20;;
4096;SDS011;2062;50.694;7.246;2022-09-16T00:37:11;4.63;;;1.48;;
4096;SDS011;2062;50.694;7.246;2022-09-16T00:39:38;5.13;;;1.13;;
4096;SDS011;2062;50.694;7.246;2022-09-16T00:42:05;3.58;;;1.30;;
4096;SDS011;2062;50.694;7.246;2022-09-16T00:44:51;3.73;;;1.20;;
4096;SDS011;2062;50.694;7.246;2022-09-16T00:47:22;3.50;;;1.20;;
4096;SDS011;2062;50.694;7.246;2022-09-16T00:49:53;4.53;;;1.25;;
4096;SDS011;2062;50.694;7.246;2022-09-16T00:52:25;3.50;;;1.20;;
4096;SDS011;2062;50.694;7.246;2022-09-16T00:54:54;4.05;;;1.38;;
4096;SDS011;2062;50.694;7.246;2022-09-16T00:57:20;4.17;;;0.97;;
4096;SDS011;2062;50.694;7.246;2022-09-16T00:59:48;3.75;;;1.10;;
4096;SDS011;2062;50.694;7.246;2022-09-16T01:02:19;4.10;;;1.30;;
4096;SDS011;2062;50.694;7.246;2022-09-16T01:04:47;3.33;;;0.80;;
4096;SDS011;2062;50.694;7.246;2022-09-16T01:07:19;4.18;;;1.10;;
4096;SDS011;2062;50.694;7.246;2022-09-16T01:09:51;5.47;;;1.27;;
4096;SDS011;2062;50.694;7.246;2022-09-16T01:12:18;3.00;;;0.90;;
4096;SDS011;2062;50.694;7.246;2022-09-16T01:14:45;4.38;;;1.38;;
4096;SDS011;2062;50.694;7.246;2022-09-16T01:17:20;3.75;;;1.30;;
4096;SDS011;2062;50.694;7.246;2022-09-16T01:20:09;4.20;;;1.38;;
4096;SDS011;2062;50.694;7.246;2022-09-16T01:23:05;4.83;;;1.30;;
4096;SDS011;2062;50.694;7.246;2022-09-16T01:25:47;3.75;;;1.02;;
4096;SDS011;2062;50.694;7.246;2022-09-16T01:28:31;3.78;;;1.10;;
4096;SDS011;2062;50.694;7.246;2022-09-16T01:31:15;3.75;;;0.93;;
4096;SDS011;2062;50.694;7.246;2022-09-16T01:33:49;4.10;;;1.10;;
4096;SDS011;2062;50.694;7.246;2022-09-16T01:36:27;3.53;;;0.90;;
4096;SDS011;2062;50.694;7.246;2022-09-16T01:39:08;3.88;;;1.00;;
4096;SDS011;2062;50.694;7.246;2022-09-16T01:41:50;3.80;;;1.13;;
4096;SDS011;2062;50.694;7.246;2022-09-16T01:44:31;3.35;;;1.00;;
4096;SDS011;2062;50.694;7.246;2022-09-16T01:47:07;4.47;;;1.30;;
4096;SDS011;2062;50.694;7.246;2022-09-16T01:49:39;3.77;;;1.00;;
4096;SDS011;2062;50.694;7.246;2022-09-16T01:52:14;4.07;;;1.10;;
4096;SDS011;2062;50.694;7.246;2022-09-16T01:54:48;3.95;;;1.17;;
4096;SDS011;2062;50.694;7.246;2022-09-16T01:57:20;5.50;;;1.20;;
4096;SDS011;2062;50.694;7.246;2022-09-16T01:59:53;4.13;;;1.10;;
4096;SDS011;2062;50.694;7.246;2022-09-16T02:02:25;3.63;;;1.10;;
4096;SDS011;2062;50.694;7.246;2022-09-16T02:04:57;3.33;;;1.00;;
4096;SDS011;2062;50.694;7.246;2022-09-16T02:07:30;3.85;;;1.10;;
4096;SDS011;2062;50.694;7.246;2022-09-16T02:10:02;4.05;;;1.20;;
4096;SDS011;2062;50.694;7.246;2022-09-16T02:12:34;4.10;;;1.27;;
4096;SDS011;2062;50.694;7.246;2022-09-16T02:15:06;4.03;;;1.20;;
4096;SDS011;2062;50.694;7.246;2022-09-16T02:17:39;3.50;;;1.05;;
4096;SDS011;2062;50.694;7.246;2022-09-16T02:20:11;4.07;;;1.20;;
4096;SDS011;2062;50.694;7.246;2022-09-16T02:22:42;3.88;;;0.90;;
4096;SDS011;2062;50.694;7.246;2022-09-16T02:25:12;4.45;;;1.17;;
4096;SDS011;2062;50.694;7.246;2022-09-16T02:27:43;3.20;;;1.00;;
4096;SDS011;2062;50.694;7.246;2022-09-16T02:30:13;3.38;;;0.93;;
4096;SDS011;2062;50.694;7.246;2022-09-16T02:32:44;3.20;;;1.00;;
4096;SDS011;2062;50.694;7.246;2022-09-16T02:35:14;3.58;;;1.10;;
4096;SDS011;2062;50.694;7.246;2022-09-16T02:37:44;3.42;;;1.20;;
4096;SDS011;2062;50.694;7.246;2022-09-16T02:40:16;3.83;;;1.10;;
4096;SDS011;2062;50.694;7.246;2022-09-16T02:42:47;3.00;;;0.90;;
4096;SDS011;2062;50.694;7.246;2022-09-16T02:45:14;3.33;;;1.10;;
4096;SDS011;2062;50.694;7.246;2022-09-16T02:47:43;3.53;;;1.08;;
4096;SDS011;2062;50.694;7.246;2022-09-16T02:50:20;3.55;;;1.13;;
4096;SDS011;2062;50.694;7.246;2022-09-16T02:52:55;4.23;;;1.10;;
4096;SDS011;2062;50.694;7.246;2022-09-16T02:55:28;3.42;;;1.15;;
4096;SDS011;2062;50.694;7.246;2022-09-16T02:58:03;3.50;;;1.00;;
4096;SDS011;2062;50.694;7.246;2022-09-16T03:00:31;3.30;;;1.02;;
4096;SDS011;2062;50.694;7.246;2022-09-16T03:03:02;4.45;;;1.05;;
4096;SDS011;2062;50.694;7.246;2022-09-16T03:05:29;4.27;;;1.20;;
4096;SDS011;2062;50.694;7.246;2022-09-16T03:07:56;3.80;;;1.10;;
4096;SDS011;2062;50.694;7.246;2022-09-16T03:10:27;4.10;;;1.00;;
4096;SDS011;2062;50.694;7.246;2022-09-16T03:13:02;3.50;;;0.90;;
4096;SDS011;2062;50.694;7.246;2022-09-16T03:15:40;3.13;;;0.93;;
4096;SDS011;2062;50.694;7.246;2022-09-16T03:18:23;4.27;;;1.10;;
4096;SDS011;2062;50.694;7.246;2022-09-16T03:21:03;3.40;;;1.00;;
4096;SDS011;2062;50.694;7.246;2022-09-16T03:23:41;3.38;;;0.90;;
4096;SDS011;2062;50.694;7.246;2022-09-16T03:26:15;3.30;;;0.80;;
4096;SDS011;2062;50.694;7.246;2022-09-16T03:28:53;3.05;;;1.00;;
4096;SDS011;2062;50.694;7.246;2022-09-16T03:31:27;3.67;;;0.80;;
4096;SDS011;2062;50.694;7.246;2022-09-16T03:34:00;3.38;;;0.90;;
4096;SDS011;2062;50.694;7.246;2022-09-16T03:36:32;3.60;;;0.93;;
4096;SDS011;2062;50.694;7.246;2022-09-16T03:39:02;4.47;;;1.30;;
4096;SDS011;2062;50.694;7.246;2022-09-16T03:41:30;3.63;;;0.90;;
4096;SDS011;2062;50.694;7.246;2022-09-16T03:43:58;3.00;;;0.90;;
4096;SDS011;2062;50.694;7.246;2022-09-16T03:46:26;6.38;;;0.90;;
4096;SDS011;2062;50.694;7.246;2022-09-16T03:48:53;3.05;;;0.90;;
4096;SDS011;2062;50.694;7.246;2022-09-16T03:51:22;3.20;;;1.00;;
4096;SDS011;2062;50.694;7.246;2022-09-16T03:53:49;2.85;;;0.80;;
4096;SDS011;2062;50.694;7.246;2022-09-16T03:56:16;3.07;;;0.83;;
4096;SDS011;2062;50.694;7.246;2022-09-16T03:58:42;3.97;;;1.10;;
4096;SDS011;2062;50.694;7.246;2022-09-16T04:01:09;4.60;;;1.10;;
4096;SDS011;2062;50.694;7.246;2022-09-16T04:03:36;3.13;;;0.82;;
4096;SDS011;2062;50.694;7.246;2022-09-16T04:06:03;3.33;;;0.80;;
4096;SDS011;2062;50.694;7.246;2022-09-16T04:08:31;3.20;;;0.90;;
4096;SDS011;2062;50.694;7.246;2022-09-16T04:11:01;4.68;;;1.10;;
4096;SDS011;2062;50.694;7.246;2022-09-16T04:13:30;3.67;;;0.88;;
4096;SDS011;2062;50.694;7.246;2022-09-16T04:15:58;3.05;;;0.95;;
4096;SDS011;2062;50.694;7.246;2022-09-16T04:18:25;5.88;;;1.40;;
4096;SDS011;2062;50.694;7.246;2022-09-16T04:20:55;4.43;;;1.00;;
4096;SDS011;2062;50.694;7.246;2022-09-16T04:23:22;5.30;;;0.82;;
4096;SDS011;2062;50.694;7.246;2022-09-16T04:25:53;4.40;;;1.15;;
4096;SDS011;2062;50.694;7.246;2022-09-16T04:28:20;6.03;;;1.10;;
4096;SDS011;2062;50.694;7.246;2022-09-16T04:30:47;4.85;;;1.10;;
4096;SDS011;2062;50.694;7.246;2022-09-16T04:33:14;5.40;;;1.10;;
4096;SDS011;2062;50.694;7.246;2022-09-16T04:35:41;6.05;;;1.00;;
4096;SDS011;2062;50.694;7.246;2022-09-16T04:38:08;7.68;;;1.30;;
4096;SDS011;2062;50.694;7.246;2022-09-16T04:40:34;8.07;;;1.20;;
4096;SDS011;2062;50.694;7.246;2022-09-16T04:43:04;3.92;;;1.27;;
4096;SDS011;2062;50.694;7.246;2022-09-16T04:45:31;5.27;;;1.20;;
4096;SDS011;2062;50.694;7.246;2022-09-16T04:47:57;6.60;;;1.13;;
4096;SDS011;2062;50.694;7.246;2022-09-16T04:50:24;7.70;;;1.45;;
4096;SDS011;2062;50.694;7.246;2022-09-16T04:52:51;7.13;;;1.20;;
4096;SDS011;2062;50.694;7.246;2022-09-16T04:55:18;8.18;;;1.40;;
4096;SDS011;2062;50.694;7.246;2022-09-16T04:57:47;10.07;;;1.77;;
4096;SDS011;2062;50.694;7.246;2022-09-16T05:00:15;54.40;;;5.35;;
4096;SDS011;2062;50.694;7.246;2022-09-16T05:02:42;51.03;;;5.03;;
4096;SDS011;2062;50.694;7.246;2022-09-16T05:05:09;24.90;;;2.80;;
4096;SDS011;2062;50.694;7.246;2022-09-16T05:07:36;23.17;;;2.40;;
4096;SDS011;2062;50.694;7.246;2022-09-16T05:10:04;17.50;;;2.47;;
4096;SDS011;2062;50.694;7.246;2022-09-16T05:12:31;13.98;;;2.00;;
4096;SDS011;2062;50.694;7.246;2022-09-16T05:14:58;11.07;;;1.67;;
4096;SDS011;2062;50.694;7.246;2022-09-16T05:17:26;10.68;;;1.80;;
4096;SDS011;2062;50.694;7.246;2022-09-16T05:19:55;10.10;;;1.88;;
4096;SDS011;2062;50.694;7.246;2022-09-16T05:22:22;8.90;;;1.67;;
4096;SDS011;2062;50.694;7.246;2022-09-16T05:24:48;9.13;;;1.38;;
4096;SDS011;2062;50.694;7.246;2022-09-16T05:27:15;8.80;;;1.55;;
4096;SDS011;2062;50.694;7.246;2022-09-16T05:29:42;9.52;;;1.38;;
4096;SDS011;2062;50.694;7.246;2022-09-16T05:32:10;5.85;;;1.40;;
4096;SDS011;2062;50.694;7.246;2022-09-16T05:34:38;8.43;;;1.80;;
4096;SDS011;2062;50.694;7.246;2022-09-16T05:37:05;7.00;;;1.40;;
4096;SDS011;2062;50.694;7.246;2022-09-16T05:39:31;6.22;;;1.30;;
4096;SDS011;2062;50.694;7.246;2022-09-16T05:41:58;6.90;;;1.80;;
4096;SDS011;2062;50.694;7.246;2022-09-16T05:44:26;8.45;;;1.52;;
4096;SDS011;2062;50.694;7.246;2022-09-16T05:46:53;7.40;;;1.30;;
4096;SDS011;2062;50.694;7.246;2022-09-16T05:49:21;8.38;;;1.50;;
4096;SDS011;2062;50.694;7.246;2022-09-16T05:51:49;7.38;;;1.10;;
4096;SDS011;2062;50.694;7.246;2022-09-16T05:54:17;8.00;;;1.33;;
4096;SDS011;2062;50.694;7.246;2022-09-16T05:56:44;6.93;;;1.48;;
4096;SDS011;2062;50.694;7.246;2022-09-16T05:59:12;6.90;;;1.43;;
4096;SDS011;2062;50.694;7.246;2022-09-16T06:01:40;9.23;;;1.63;;
4096;SDS011;2062;50.694;7.246;2022-09-16T06:04:08;5.45;;;1.23;;
4096;SDS011;2062;50.694;7.246;2022-09-16T06:06:37;9.57;;;1.70;;
4096;SDS011;2062;50.694;7.246;2022-09-16T06:09:08;6.30;;;1.60;;
4096;SDS011;2062;50.694;7.246;2022-09-16T06:11:36;5.73;;;1.90;;
4096;SDS011;2062;50.694;7.246;2022-09-16T06:14:05;6.63;;;1.42;;
4096;SDS011;2062;50.694;7.246;2022-09-16T06:16:32;7.00;;;1.42;;
4096;SDS011;2062;50.694;7.246;2022-09-16T06:19:00;3.83;;;0.90;;
4096;SDS011;2062;50.694;7.246;2022-09-16T06:21:28;9.13;;;1.33;;
4096;SDS011;2062;50.694;7.246;2022-09-16T06:23:55;5.00;;;1.23;;
4096;SDS011;2062;50.694;7.246;2022-09-16T06:26:24;5.60;;;1.30;;
4096;SDS011;2062;50.694;7.246;2022-09-16T06:28:52;5.10;;;1.10;;
4096;SDS011;2062;50.694;7.246;2022-09-16T06:31:20;5.40;;;1.30;;
4096;SDS011;2062;50.694;7.246;2022-09-16T06:33:48;7.68;;;1.45;;
4096;SDS011;2062;50.694;7.246;2022-09-16T06:36:16;6.17;;;1.30;;
4096;SDS011;2062;50.694;7.246;2022-09-16T06:38:44;5.22;;;1.15;;
4096;SDS011;2062;50.694;7.246;2022-09-16T06:41:12;8.75;;;1.10;;
4096;SDS011;2062;50.694;7.246;2022-09-16T06:43:42;7.28;;;1.20;;
4096;SDS011;2062;50.694;7.246;2022-09-16T06:46:09;7.05;;;1.20;;
4096;SDS011;2062;50.694;7.246;2022-09-16T06:48:40;4.43;;;0.90;;
4096;SDS011;2062;50.694;7.246;2022-09-16T06:51:08;5.25;;;0.95;;
4096;SDS011;2062;50.694;7.246;2022-09-16T06:53:36;7.82;;;1.50;;
4096;SDS011;2062;50.694;7.246;2022-09-16T06:56:04;6.13;;;1.25;;
4096;SDS011;2062;50.694;7.246;2022-09-16T06:58:35;4.57;;;1.10;;
4096;SDS011;2062;50.694;7.246;2022-09-16T07:01:05;5.33;;;1.10;;
4096;SDS011;2062;50.694;7.246;2022-09-16T07:03:32;7.15;;;1.20;;
4096;SDS011;2062;50.694;7.246;2022-09-16T07:06:02;6.20;;;1.42;;
4096;SDS011;2062;50.694;7.246;2022-09-16T07:08:29;12.70;;;1.83;;
4096;SDS011;2062;50.694;7.246;2022-09-16T07:10:57;7.28;;;1.60;;
4096;SDS011;2062;50.694;7.246;2022-09-16T07:13:24;7.77;;;1.83;;
4096;SDS011;2062;50.694;7.246;2022-09-16T07:15:52;7.63;;;1.52;;
4096;SDS011;2062;50.694;7.246;2022-09-16T07:18:20;8.50;;;1.50;;
4096;SDS011;2062;50.694;7.246;2022-09-16T07:20:47;6.10;;;1.40;;
4096;SDS011;2062;50.694;7.246;2022-09-16T07:23:13;8.70;;;1.70;;
4096;SDS011;2062;50.694;7.246;2022-09-16T07:25:40;14.00;;;1.80;;
4096;SDS011;2062;50.694;7.246;2022-09-16T07:28:07;6.35;;;1.48;;
4096;SDS011;2062;50.694;7.246;2022-09-16T07:30:34;7.65;;;1.58;;
4096;SDS011;2062;50.694;7.246;2022-09-16T07:33:00;15.88;;;1.67;;
4096;SDS011;2062;50.694;7.246;2022-09-16T07:35:29;9.30;;;1.70;;
4096;SDS011;2062;50.694;7.246;2022-09-16T07:37:55;13.13;;;1.50;;
4096;SDS011;2062;50.694;7.246;2022-09-16T07:40:22;8.13;;;1.70;;
4096;SDS011;2062;50.694;7.246;2022-09-16T07:42:49;12.35;;;1.70;;
4096;SDS011;2062;50.694;7.246;2022-09-16T07:45:16;10.93;;;1.80;;
4096;SDS011;2062;50.694;7.246;2022-09-16T07:47:43;12.93;;;1.60;;
4096;SDS011;2062;50.694;7.246;2022-09-16T07:50:14;6.37;;;1.57;;
4096;SDS011;2062;50.694;7.246;2022-09-16T07:52:42;9.88;;;2.00;;
4096;SDS011;2062;50.694;7.246;2022-09-16T07:55:09;9.52;;;2.10;;
4096;SDS011;2062;50.694;7.246;2022-09-16T07:57:36;8.40;;;1.70;;
4096;SDS011;2062;50.694;7.246;2022-09-16T08:00:03;8.90;;;2.00;;
4096;SDS011;2062;50.694;7.246;2022-09-16T08:02:31;14.23;;;2.10;;
4096;SDS011;2062;50.694;7.246;2022-09-16T08:04:58;10.25;;;2.22;;
4096;SDS011;2062;50.694;7.246;2022-09-16T08:07:24;9.25;;;2.42;;
4096;SDS011;2062;50.694;7.246;2022-09-16T08:09:53;10.10;;;2.00;;
4096;SDS011;2062;50.694;7.246;2022-09-16T08:12:19;7.85;;;2.00;;
4096;SDS011;2062;50.694;7.246;2022-09-16T08:14:46;9.17;;;2.00;;
4096;SDS011;2062;50.694;7.246;2022-09-16T08:17:13;6.57;;;1.77;;
4096;SDS011;2062;50.694;7.246;2022-09-16T08:19:40;11.82;;;1.98;;
4096;SDS011;2062;50.694;7.246;2022-09-16T08:22:07;13.20;;;2.45;;
4096;SDS011;2062;50.694;7.246;2022-09-16T08:24:33;7.63;;;2.10;;
4096;SDS011;2062;50.694;7.246;2022-09-16T08:27:02;9.67;;;1.90;;
4096;SDS011;2062;50.694;7.246;2022-09-16T08:29:29;8.27;;;1.70;;
4096;SDS011;2062;50.694;7.246;2022-09-16T08:31:55;10.65;;;2.33;;
4096;SDS011;2062;50.694;7.246;2022-09-16T08:34:22;11.98;;;1.83;;
4096;SDS011;2062;50.694;7.246;2022-09-16T08:36:49;8.40;;;1.90;;
4096;SDS011;2062;50.694;7.246;2022-09-16T08:39:16;11.20;;;1.93;;
4096;SDS011;2062;50.694;7.246;2022-09-16T08:47:56;6.75;;;1.70;;
4096;SDS011;2062;50.694;7.246;2022-09-16T08:50:32;6.22;;;1.60;;
4096;SDS011;2062;50.694;7.246;2022-09-16T08:53:02;8.63;;;1.90;;
4096;SDS011;2062;50.694;7.246;2022-09-16T08:55:36;7.10;;;2.30;;
4096;SDS011;2062;50.694;7.246;2022-09-16T08:58:06;7.57;;;2.00;;
4096;SDS011;2062;50.694;7.246;2022-09-16T09:00:39;7.32;;;1.70;;
4096;SDS011;2062;50.694;7.246;2022-09-16T09:03:13;10.55;;;2.05;;
4096;SDS011;2062;50.694;7.246;2022-09-16T09:05:46;8.10;;;1.77;;
4096;SDS011;2062;50.694;7.246;2022-09-16T09:08:19;9.23;;;1.60;;
4096;SDS011;2062;50.694;7.246;2022-09-16T09:10:53;9.85;;;1.70;;
4096;SDS011;2062;50.694;7.246;2022-09-16T09:13:27;9.35;;;1.65;;
4096;SDS011;2062;50.694;7.246;2022-09-16T09:16:13;6.75;;;1.75;;
4096;SDS011;2062;50.694;7.246;2022-09-16T09:18:49;15.70;;;2.23;;
4096;SDS011;2062;50.694;7.246;2022-09-16T09:21:28;28.20;;;4.13;;
4096;SDS011;2062;50.694;7.246;2022-09-16T09:24:09;20.88;;;3.08;;
4096;SDS011;2062;50.694;7.246;2022-09-16T09:26:47;16.45;;;2.60;;
4096;SDS011;2062;50.694;7.246;2022-09-16T09:32:12;14.10;;;2.33;;
4096;SDS011;2062;50.694;7.246;2022-09-16T09:34:50;18.73;;;2.55;;
4096;SDS011;2062;50.694;7.246;2022-09-16T09:37:41;12.73;;;2.30;;
4096;SDS011;2062;50.694;7.246;2022-09-16T09:40:20;16.92;;;2.10;;
4096;SDS011;2062;50.694;7.246;2022-09-16T09:42:58;11.10;;;2.10;;
4096;SDS011;2062;50.694;7.246;2022-09-16T09:45:34;11.00;;;2.10;;
4096;SDS011;2062;50.694;7.246;2022-09-16T09:48:08;15.13;;;2.20;;
4096;SDS011;2062;50.694;7.246;2022-09-16T09:50:43;9.85;;;1.80;;
4096;SDS011;2062;50.694;7.246;2022-09-16T09:53:12;15.43;;;2.13;;
4096;SDS011;2062;50.694;7.246;2022-09-16T09:55:43;11.02;;;1.90;;
4096;SDS011;2062;50.694;7.246;2022-09-16T09:58:15;15.73;;;2.07;;
4096;SDS011;2062;50.694;7.246;2022-09-16T10:00:46;25.55;;;2.75;;
4096;SDS011;2062;50.694;7.246;2022-09-16T10:03:15;19.85;;;3.03;;
4096;SDS011;2062;50.694;7.246;2022-09-16T10:05:43;16.52;;;2.50;;
4096;SDS011;2062;50.694;7.246;2022-09-16T10:08:13;15.60;;;2.55;;
4096;SDS011;2062;50.694;7.246;2022-09-16T10:10:47;12.57;;;1.70;;
4096;SDS011;2062;50.694;7.246;2022-09-16T10:13:17;11.18;;;1.58;;
4096;SDS011;2062;50.694;7.246;2022-09-16T10:15:45;14.85;;;2.00;;
4096;SDS011;2062;50.694;7.246;2022-09-16T10:18:13;10.35;;;1.85;;
4096;SDS011;2062;50.694;7.246;2022-09-16T10:20:54;10.40;;;1.80;;
4096;SDS011;2062;50.694;7.246;2022-09-16T10:23:27;10.10;;;1.80;;
4096;SDS011;2062;50.694;7.246;2022-09-16T10:26:13;12.27;;;2.00;;
4096;SDS011;2062;50.694;7.246;2022-09-16T10:28:57;13.82;;;1.70;;
4096;SDS011;2062;50.694;7.246;2022-09-16T10:31:26;11.15;;;1.70;;
4096;SDS011;2062;50.694;7.246;2022-09-16T10:33:59;10.63;;;1.95;;
4096;SDS011;2062;50.694;7.246;2022-09-16T10:36:28;13.50;;;1.93;;
4096;SDS011;2062;50.694;7.246;2022-09-16T10:38:59;11.05;;;1.80;;
4096;SDS011;2062;50.694;7.246;2022-09-16T10:41:27;9.00;;;1.60;;
4096;SDS011;2062;50.694;7.246;2022-09-16T10:44:00;14.35;;;2.17;;
4096;SDS011;2062;50.694;7.246;2022-09-16T10:46:29;7.13;;;1.33;;
4096;SDS011;2062;50.694;7.246;2022-09-16T10:48:59;9.37;;;1.50;;
4096;SDS011;2062;50.694;7.246;2022-09-16T10:51:34;7.32;;;1.38;;
4096;SDS011;2062;50.694;7.246;2022-09-16T10:54:02;9.77;;;1.70;;
4096;SDS011;2062;50.694;7.246;2022-09-16T10:56:30;9.00;;;1.75;;
4096;SDS011;2062;50.694;7.246;2022-09-16T10:59:02;8.73;;;1.52;;
4096;SDS011;2062;50.694;7.246;2022-09-16T11:01:36;9.20;;;1.50;;
4096;SDS011;2062;50.694;7.246;2022-09-16T11:04:16;8.27;;;1.45;;
4096;SDS011;2062;50.694;7.246;2022-09-16T11:07:09;7.88;;;1.38;;
4096;SDS011;2062;50.694;7.246;2022-09-16T11:09:47;6.40;;;1.30;;
4096;SDS011;2062;50.694;7.246;2022-09-16T11:12:32;8.40;;;1.48;;
4096;SDS011;2062;50.694;7.246;2022-09-16T11:15:22;6.80;;;1.60;;
4096;SDS011;2062;50.694;7.246;2022-09-16T11:18:00;9.45;;;1.65;;
4096;SDS011;2062;50.694;7.246;2022-09-16T11:20:48;8.30;;;1.70;;
4096;SDS011;2062;50.694;7.246;2022-09-16T11:23:29;6.53;;;1.40;;
4096;SDS011;2062;50.694;7.246;2022-09-16T11:26:06;7.15;;;1.70;;
4096;SDS011;2062;50.694;7.246;2022-09-16T11:28:45;5.47;;;1.30;;
4096;SDS011;2062;50.694;7.246;2022-09-16T11:31:24;9.52;;;1.48;;
4096;SDS011;2062;50.694;7.246;2022-09-16T11:34:00;8.02;;;1.55;;
4096;SDS011;2062;50.694;7.246;2022-09-16T11:36:41;8.98;;;1.35;;
4096;SDS011;2062;50.694;7.246;2022-09-16T11:39:28;7.40;;;1.40;;
4096;SDS011;2062;50.694;7.246;2022-09-16T11:42:06;6.27;;;1.33;;
4096;SDS011;2062;50.694;7.246;2022-09-16T11:44:43;8.77;;;1.67;;
4096;SDS011;2062;50.694;7.246;2022-09-16T11:50:06;9.35;;;1.23;;
4096;SDS011;2062;50.694;7.246;2022-09-16T11:52:49;8.35;;;1.27;;
4096;SDS011;2062;50.694;7.246;2022-09-16T11:55:31;11.17;;;1.87;;
4096;SDS011;2062;50.694;7.246;2022-09-16T11:58:09;9.80;;;1.35;;
4096;SDS011;2062;50.694;7.246;2022-09-16T12:00:45;9.35;;;1.52;;
4096;SDS011;2062;50.694;7.246;2022-09-16T12:03:20;7.80;;;1.55;;
4096;SDS011;2062;50.694;7.246;2022-09-16T12:05:55;7.05;;;1.50;;
4096;SDS011;2062;50.694;7.246;2022-09-16T12:08:32;7.53;;;1.17;;
4096;SDS011;2062;50.694;7.246;2022-09-16T12:11:13;5.97;;;1.52;;
4096;SDS011;2062;50.694;7.246;2022-09-16T12:13:47;7.47;;;1.30;;
4096;SDS011;2062;50.694;7.246;2022-09-16T12:16:19;8.43;;;1.52;;
4096;SDS011;2062;50.694;7.246;2022-09-16T12:18:52;7.85;;;1.48;;
4096;SDS011;2062;50.694;7.246;2022-09-16T12:21:25;7.93;;;1.50;;
4096;SDS011;2062;50.694;7.246;2022-09-16T12:23:56;7.90;;;1.27;;
4096;SDS011;2062;50.694;7.246;2022-09-16T12:26:29;5.03;;;1.50;;
4096;SDS011;2062;50.694;7.246;2022-09-16T12:28:58;6.45;;;1.30;;
4096;SDS011;2062;50.694;7.246;2022-09-16T12:31:32;10.18;;;1.73;;
4096;SDS011;2062;50.694;7.246;2022-09-16T12:34:02;9.47;;;1.43;;
4096;SDS011;2062;50.694;7.246;2022-09-16T12:36:34;11.55;;;1.40;;
4096;SDS011;2062;50.694;7.246;2022-09-16T12:39:04;11.13;;;1.60;;
4096;SDS011;2062;50.694;7.246;2022-09-16T12:41:42;7.07;;;1.10;;
4096;SDS011;2062;50.694;7.246;2022-09-16T12:50:23;9.32;;;1.35;;
4096;SDS011;2062;50.694;7.246;2022-09-16T12:56:19;5.13;;;1.20;;
4096;SDS011;2062;50.694;7.246;2022-09-16T12:59:15;4.97;;;1.20;;
4096;SDS011;2062;50.694;7.246;2022-09-16T13:02:09;5.40;;;1.10;;
4096;SDS011;2062;50.694;7.246;2022-09-16T13:04:42;5.22;;;1.20;;
4096;SDS011;2062;50.694;7.246;2022-09-16T13:07:15;8.20;;;1.27;;
4096;SDS011;2062;50.694;7.246;2022-09-16T13:09:46;6.13;;;1.10;;
4096;SDS011;2062;50.694;7.246;2022-09-16T13:12:20;6.45;;;1.35;;
4096;SDS011;2062;50.694;7.246;2022-09-16T13:14:49;5.67;;;1.30;;
4096;SDS011;2062;50.694;7.246;2022-09-16T13:17:26;9.00;;;1.23;;
4096;SDS011;2062;50.694;7.246;2022-09-16T13:19:55;4.55;;;1.00;;
4096;SDS011;2062;50.694;7.246;2022-09-16T13:22:28;6.03;;;1.20;;
4096;SDS011;2062;50.694;7.246;2022-09-16T13:25:07;6.22;;;1.20;;
4096;SDS011;2062;50.694;7.246;2022-09-16T13:27:39;5.00;;;1.00;;
4096;SDS011;2062;50.694;7.246;2022-09-16T13:30:36;3.65;;;0.98;;
4096;SDS011;2062;50.694;7.246;2022-09-16T13:33:20;5.18;;;1.02;;
4096;SDS011;2062;50.694;7.246;2022-09-16T13:36:01;5.80;;;1.20;;
4096;SDS011;2062;50.694;7.246;2022-09-16T13:38:39;6.72;;;1.27;;
4096;SDS011;2062;50.694;7.246;2022-09-16T13:41:09;5.27;;;1.10;;
4096;SDS011;2062;50.694;7.246;2022-09-16T13:43:49;4.47;;;1.13;;
4096;SDS011;2062;50.694;7.246;2022-09-16T13:46:30;5.20;;;1.00;;
4096;SDS011;2062;50.694;7.246;2022-09-16T13:49:04;5.78;;;1.10;;
4096;SDS011;2062;50.694;7.246;2022-09-16T13:51:45;5.90;;;1.30;;
4096;SDS011;2062;50.694;7.246;2022-09-16T13:54:26;6.47;;;1.00;;
4096;SDS011;2062;50.694;7.246;2022-09-16T14:02:59;3.92;;;0.90;;
4096;SDS011;2062;50.694;7.246;2022-09-16T14:05:55;7.45;;;1.20;;
4096;SDS011;2062;50.694;7.246;2022-09-16T14:08:43;4.57;;;0.90;;
4096;SDS011;2062;50.694;7.246;2022-09-16T14:11:20;4.63;;;1.10;;
4096;SDS011;2062;50.694;7.246;2022-09-16T14:13:55;3.40;;;1.00;;
4096;SDS011;2062;50.694;7.246;2022-09-16T14:16:29;4.18;;;0.85;;
4096;SDS011;2062;50.694;7.246;2022-09-16T14:18:59;4.85;;;0.90;;
4096;SDS011;2062;50.694;7.246;2022-09-16T14:21:29;4.70;;;0.80;;
4096;SDS011;2062;50.694;7.246;2022-09-16T14:24:05;5.07;;;1.02;;
4096;SDS011;2062;50.694;7.246;2022-09-16T14:26:34;4.72;;;0.90;;
4096;SDS011;2062;50.694;7.246;2022-09-16T14:29:01;4.13;;;1.10;;
4096;SDS011;2062;50.694;7.246;2022-09-16T14:31:31;4.07;;;0.80;;
4096;SDS011;2062;50.694;7.246;2022-09-16T14:33:59;6.33;;;0.80;;
4096;SDS011;2062;50.694;7.246;2022-09-16T14:36:31;6.70;;;1.40;;
4096;SDS011;2062;50.694;7.246;2022-09-16T14:39:03;4.63;;;1.02;;
4096;SDS011;2062;50.694;7.246;2022-09-16T14:41:36;4.95;;;1.20;;
4096;SDS011;2062;50.694;7.246;2022-09-16T14:44:07;8.40;;;1.23;;
4096;SDS011;2062;50.694;7.246;2022-09-16T14:46:42;6.70;;;0.90;;
4096;SDS011;2062;50.694;7.246;2022-09-16T14:49:10;8.15;;;1.05;;
4096;SDS011;2062;50.694;7.246;2022-09-16T14:51:41;7.68;;;1.05;;
4096;SDS011;2062;50.694;7.246;2022-09-16T14:54:14;6.55;;;1.05;;
4096;SDS011;2062;50.694;7.246;2022-09-16T14:56:52;8.07;;;1.15;;
4096;SDS011;2062;50.694;7.246;2022-09-16T14:59:21;6.53;;;1.30;;
4096;SDS011;2062;50.694;7.246;2022-09-16T15:01:53;4.43;;;0.90;;
4096;SDS011;2062;50.694;7.246;2022-09-16T15:04:23;4.88;;;0.98;;
4096;SDS011;2062;50.694;7.246;2022-09-16T15:06:55;6.00;;;0.98;;
4096;SDS011;2062;50.694;7.246;2022-09-16T15:09:27;6.82;;;1.17;;
4096;SDS011;2062;50.694;7.246;2022-09-16T15:12:00;6.93;;;1.00;;
4096;SDS011;2062;50.694;7.246;2022-09-16T15:14:28;3.85;;;0.80;;
4096;SDS011;2062;50.694;7.246;2022-09-16T15:16:57;9.18;;;1.30;;
4096;SDS011;2062;50.694;7.246;2022-09-16T15:19:27;5.35;;;1.15;;
4096;SDS011;2062;50.694;7.246;2022-09-16T15:21:58;6.60;;;1.10;;
4096;SDS011;2062;50.694;7.246;2022-09-16T15:24:26;7.07;;;1.30;;
4096;SDS011;2062;50.694;7.246;2022-09-16T15:26:55;6.18;;;1.02;;
4096;SDS011;2062;50.694;7.246;2022-09-16T15:29:27;4.55;;;0.90;;
4096;SDS011;2062;50.694;7.246;2022-09-16T15:32:06;5.93;;;1.10;;
4096;SDS011;2062;50.694;7.246;2022-09-16T15:34:43;8.25;;;1.08;;
4096;SDS011;2062;50.694;7.246;2022-09-16T15:37:27;5.60;;;1.00;;
4096;SDS011;2062;50.694;7.246;2022-09-16T15:40:06;7.43;;;1.15;;
4096;SDS011;2062;50.694;7.246;2022-09-16T15:42:43;3.95;;;1.10;;
4096;SDS011;2062;50.694;7.246;2022-09-16T15:45:12;5.43;;;1.10;;
4096;SDS011;2062;50.694;7.246;2022-09-16T15:50:36;5.27;;;1.10;;
4096;SDS011;2062;50.694;7.246;2022-09-16T15:53:06;5.63;;;0.98;;
4096;SDS011;2062;50.694;7.246;2022-09-16T15:55:39;5.53;;;0.85;;
4096;SDS011;2062;50.694;7.246;2022-09-16T15:58:10;4.05;;;0.82;;
4096;SDS011;2062;50.694;7.246;2022-09-16T16:06:45;4.40;;;1.00;;
4096;SDS011;2062;50.694;7.246;2022-09-16T16:09:29;6.68;;;1.15;;
4096;SDS011;2062;50.694;7.246;2022-09-16T16:12:00;4.28;;;1.00;;
4096;SDS011;2062;50.694;7.246;2022-09-16T16:14:28;4.65;;;1.00;;
4096;SDS011;2062;50.694;7.246;2022-09-16T16:16:57;5.73;;;0.97;;